Time;durP1;ratioP1;P1;durP2;ratioP2;P2;SDS_P1;SDS_P2;PMS_P1;PMS_P2;Temp;Humidity;BMP_temperature;BMP_pressure;BME280_temperature;BME280_humidity;BME280_pressure;Samples;Min_cycle;Max_cycle;Signal;HPM_P1;HPM_P2
2023/12/27 06:44:47;;;;;;;6.80;3.40;;;;;;;;;;10583970;27;20423;-85
2023/12/27 06:50:14;;;;;;;7.13;3.25;;;;;;;;;;10494456;28;20033;-85
2023/12/27 07:01:01;;;;;;;6.53;3.15;;;;;;;;;;10465262;28;20033;-86
2023/12/27 08:14:37;;;;;;;6.72;2.55;;;;;;;;;;10435992;28;20544;-83
2023/12/27 08:19:38;;;;;;;;;;;;;;;;;;10433729;28;20053;-80
2023/12/27 08:24:39;;;;;;;9.10;3.80;;;;;;;;;;10412522;28;19913;-79
2023/12/27 08:29:41;;;;;;;9.13;3.63;;;;;;;;;;10431723;28;20401;-81
2023/12/27 08:34:42;;;;;;;;;;;;;;;;;;10432400;28;20159;-81
2023/12/27 08:39:43;;;;;;;8.27;3.90;;;;;;;;;;10430530;28;19940;-80
2023/12/27 08:44:44;;;;;;;7.40;4.47;;;;;;;;;;10436329;28;20029;-81
2023/12/27 08:49:45;;;;;;;8.63;3.83;;;;;;;;;;10429859;28;20028;-81
2023/12/27 08:54:46;;;;;;;;;;;;;;;;;;10430225;28;20079;-80
2023/12/27 08:59:47;;;;;;;10.10;3.75;;;;;;;;;;10431372;28;19951;-81
2023/12/27 09:04:48;;;;;;;;;;;;;;;;;;10425103;28;20029;-81
2023/12/27 09:09:49;;;;;;;6.32;3.70;;;;;;;;;;10407959;28;19945;-82
2023/12/27 09:14:52;;;;;;;8.88;4.25;;;;;;;;;;10423745;28;20041;-82
2023/12/27 09:19:54;;;;;;;6.22;3.42;;;;;;;;;;10407721;28;20500;-83
2023/12/27 09:24:55;;;;;;;6.70;3.17;;;;;;;;;;10422848;28;20041;-83
2023/12/27 09:29:58;;;;;;;5.68;3.13;;;;;;;;;;10418220;28;20033;-82
2023/12/27 09:35:00;;;;;;;7.53;4.00;;;;;;;;;;10420253;28;20036;-81
2023/12/27 09:40:03;;;;;;;6.88;3.58;;;;;;;;;;10421471;28;20028;-83
2023/12/27 09:45:07;;;;;;;7.38;3.90;;;;;;;;;;10426858;28;20365;-82
2023/12/27 09:50:08;;;;;;;6.35;3.00;;;;;;;;;;10423579;28;20026;-83
2023/12/27 09:55:14;;;;;;;6.03;3.10;;;;;;;;;;10427931;28;20100;-83
2023/12/27 10:00:16;;;;;;;7.88;3.78;;;;;;;;;;10424723;28;20041;-83
2023/12/27 10:05:28;;;;;;;4.22;2.60;;;;;;;;;;10423200;28;20017;-82
2023/12/27 10:10:32;;;;;;;6.28;3.95;;;;;;;;;;10402837;28;20494;-82
2023/12/27 10:15:33;;;;;;;7.47;3.78;;;;;;;;;;10422888;28;20033;-82
2023/12/27 10:20:38;;;;;;;;;;;;;;;;;;10423034;28;20029;-82
2023/12/27 10:25:42;;;;;;;4.18;2.33;;;;;;;;;;10422431;28;20393;-80
2023/12/27 10:30:45;;;;;;;4.88;2.28;;;;;;;;;;10417794;28;20025;-82
2023/12/27 10:35:47;;;;;;;3.05;1.88;;;;;;;;;;10424400;28;20079;-80
2023/12/27 10:40:50;;;;;;;3.38;2.13;;;;;;;;;;10422255;28;20029;-80
2023/12/27 10:45:52;;;;;;;3.45;2.13;;;;;;;;;;10419936;28;20125;-81
2023/12/27 10:50:53;;;;;;;;;;;;;;;;;;10421074;28;20044;-81
2023/12/27 10:55:54;;;;;;;2.60;1.77;;;;;;;;;;10416244;28;19905;-80
2023/12/27 11:00:56;;;;;;;2.65;1.60;;;;;;;;;;10445563;28;20124;-82
2023/12/27 11:05:57;;;;;;;2.75;1.75;;;;;;;;;;10421386;28;20032;-81
2023/12/27 11:10:59;;;;;;;;;;;;;;;;;;10421622;28;20026;-81
2023/12/27 11:16:01;;;;;;;3.53;1.65;;;;;;;;;;10405179;28;19913;-81
2023/12/27 11:21:02;;;;;;;3.10;1.63;;;;;;;;;;10420832;28;20033;-81
2023/12/27 11:26:05;;;;;;;5.47;2.45;;;;;;;;;;10420661;28;20025;-81
2023/12/27 11:31:06;;;;;;;3.38;1.70;;;;;;;;;;10428900;28;20115;-81
2023/12/27 11:36:08;;;;;;;3.67;1.70;;;;;;;;;;10430252;28;20120;-80
2023/12/27 11:41:09;;;;;;;5.38;1.70;;;;;;;;;;10429963;28;20029;-81
2023/12/27 11:46:13;;;;;;;3.40;1.58;;;;;;;;;;10429549;28;20030;-80
2023/12/27 11:51:36;;;;;;;2.60;1.40;;;;;;;;;;10428290;28;20064;-82
2023/12/27 11:56:37;;;;;;;6.40;4.70;;;;;;;;;;10430515;28;20497;-82
2023/12/27 12:01:40;;;;;;;4.88;3.42;;;;;;;;;;10432005;28;20037;-82
2023/12/27 12:06:57;;;;;;;2.20;1.20;;;;;;;;;;10436193;28;20393;-83
2023/12/27 12:11:58;;;;;;;2.10;1.10;;;;;;;;;;10439823;28;20536;-83
2023/12/27 12:17:01;;;;;;;1.38;0.95;;;;;;;;;;10432745;28;20037;-81
2023/12/27 12:22:03;;;;;;;1.60;1.02;;;;;;;;;;10426308;28;20401;-81
2023/12/27 12:27:04;;;;;;;2.08;1.45;;;;;;;;;;10427340;28;20116;-82
2023/12/27 12:32:05;;;;;;;2.38;1.10;;;;;;;;;;10426464;28;20025;-81
2023/12/27 12:37:06;;;;;;;;;;;;;;;;;;10427945;28;20485;-81
2023/12/27 12:42:08;;;;;;;1.80;1.08;;;;;;;;;;10409943;28;19915;-82
2023/12/27 12:47:09;;;;;;;1.92;0.88;;;;;;;;;;10424878;28;20531;-82
2023/12/27 12:52:10;;;;;;;1.27;0.90;;;;;;;;;;10426610;28;20021;-82
2023/12/27 12:57:20;;;;;;;1.67;0.98;;;;;;;;;;10516503;22;20066;-85
2023/12/27 13:08:14;;;;;;;3.58;1.20;;;;;;;;;;10513232;28;20024;-86
2023/12/27 13:13:38;;;;;;;4.68;2.13;;;;;;;;;;10511674;28;20064;-86
2023/12/27 13:18:47;;;;;;;2.55;1.40;;;;;;;;;;10512614;28;20029;-86
2023/12/27 13:23:54;;;;;;;2.67;1.25;;;;;;;;;;10512917;28;20108;-86
2023/12/27 13:28:58;;;;;;;2.45;1.50;;;;;;;;;;10495202;28;20029;-86
2023/12/27 13:34:03;;;;;;;3.60;1.15;;;;;;;;;;10459709;28;20125;-85
2023/12/27 13:39:09;;;;;;;2.80;1.20;;;;;;;;;;10492809;28;20028;-84
2023/12/27 13:44:15;;;;;;;3.20;1.10;;;;;;;;;;10490120;28;20403;-84
2023/12/27 13:49:24;;;;;;;1.50;1.10;;;;;;;;;;10491070;28;20124;-84
2023/12/27 14:00:25;;;;;;;2.37;1.30;;;;;;;;;;10510891;28;20090;-83
2023/12/27 14:05:26;;;;;;;;;;;;;;;;;;10491412;28;20306;-84
2023/12/27 14:10:34;;;;;;;3.35;1.50;;;;;;;;;;10509460;28;19993;-84
2023/12/27 14:15:38;;;;;;;4.25;1.48;;;;;;;;;;10486495;28;20033;-83
2023/12/27 14:20:42;;;;;;;1.75;1.02;;;;;;;;;;10505703;28;20040;-83
2023/12/27 14:25:43;;;;;;;2.40;1.10;;;;;;;;;;10507875;28;20028;-84
2023/12/27 14:30:44;;;;;;;5.28;2.85;;;;;;;;;;10502961;28;20035;-83
2023/12/27 14:35:45;;;;;;;;;;;;;;;;;;10510693;28;20032;-82
2023/12/27 14:41:18;;;;;;;3.13;1.20;;;;;;;;;;10532750;28;19920;-85
2023/12/27 14:46:19;;;;;;;1.30;1.00;;;;;;;;;;10500262;28;20048;-87
2023/12/27 14:51:26;;;;;;;2.47;1.30;;;;;;;;;;10493749;28;20093;-86
2023/12/27 14:57:02;;;;;;;2.47;1.15;;;;;;;;;;10491081;28;20113;-86
2023/12/27 15:07:33;;;;;;;5.07;1.20;;;;;;;;;;10516804;28;20421;-85
2023/12/27 15:12:34;;;;;;;3.70;1.10;;;;;;;;;;10498936;28;20025;-85
2023/12/27 15:17:37;;;;;;;;;;;;;;;;;;10500606;28;20039;-84
2023/12/27 15:22:38;;;;;;;3.45;1.60;;;;;;;;;;10516668;28;19909;-86
2023/12/27 15:27:40;;;;;;;2.72;1.20;;;;;;;;;;10500830;28;20103;-85
2023/12/27 15:32:42;;;;;;;2.15;1.00;;;;;;;;;;10499968;28;20028;-85
2023/12/27 15:37:46;;;;;;;3.05;1.30;;;;;;;;;;10498196;28;20035;-86
2023/12/27 15:42:48;;;;;;;2.08;1.27;;;;;;;;;;10498549;28;20086;-86
2023/12/27 15:48:00;;;;;;;3.70;1.15;;;;;;;;;;10498067;28;20032;-87
2023/12/27 15:53:02;;;;;;;2.97;1.40;;;;;;;;;;10501463;28;20021;-85
2023/12/27 15:58:06;;;;;;;2.58;1.17;;;;;;;;;;10499439;28;20369;-85
2023/12/27 16:03:07;;;;;;;3.83;1.50;;;;;;;;;;10496283;28;20055;-84
2023/12/27 16:08:13;;;;;;;4.53;1.52;;;;;;;;;;10512921;28;20062;-84
2023/12/27 16:13:14;;;;;;;3.17;1.60;;;;;;;;;;10495435;28;20029;-83
2023/12/27 16:18:15;;;;;;;3.97;1.67;;;;;;;;;;10495305;28;20103;-84
2023/12/27 16:23:16;;;;;;;2.97;1.30;;;;;;;;;;10492459;28;20040;-83
2023/12/27 16:28:17;;;;;;;3.08;1.70;;;;;;;;;;10496055;28;20115;-83
2023/12/27 16:33:19;;;;;;;4.18;1.58;;;;;;;;;;10496670;28;20131;-84
2023/12/27 16:38:21;;;;;;;3.35;1.60;;;;;;;;;;10495711;28;20032;-83
2023/12/27 16:43:26;;;;;;;4.20;1.90;;;;;;;;;;10497118;28;20044;-84
2023/12/27 16:48:27;;;;;;;6.20;2.60;;;;;;;;;;10514685;28;20072;-83
2023/12/27 16:53:28;;;;;;;3.40;1.88;;;;;;;;;;10492643;28;20086;-84
2023/12/27 16:58:29;;;;;;;;;;;;;;;;;;10497631;28;20119;-83
2023/12/27 17:03:30;;;;;;;3.55;1.90;;;;;;;;;;10499200;28;19923;-84
2023/12/27 17:08:31;;;;;;;3.83;1.48;;;;;;;;;;10499544;28;20052;-83
2023/12/27 17:13:32;;;;;;;3.22;1.98;;;;;;;;;;10503729;28;20480;-82
2023/12/27 17:18:33;;;;;;;2.95;1.42;;;;;;;;;;10500231;28;20060;-79
2023/12/27 17:23:35;;;;;;;2.80;1.35;;;;;;;;;;10493649;28;20031;-83
2023/12/27 17:28:38;;;;;;;3.40;1.70;;;;;;;;;;10503920;28;20387;-83
2023/12/27 17:33:45;;;;;;;3.78;1.65;;;;;;;;;;10502513;28;20035;-85
2023/12/27 17:38:46;;;;;;;4.72;2.22;;;;;;;;;;10501461;28;20032;-85
2023/12/27 17:43:52;;;;;;;3.30;2.20;;;;;;;;;;10499159;28;20449;-86
2023/12/27 17:49:11;;;;;;;4.28;2.30;;;;;;;;;;10500614;28;20021;-86
2023/12/27 17:54:12;;;;;;;3.20;1.80;;;;;;;;;;10500636;28;20032;-85
2023/12/27 17:59:14;;;;;;;;;;;;;;;;;;10500041;28;20028;-86
2023/12/27 18:04:16;;;;;;;3.95;1.80;;;;;;;;;;10494866;28;20385;-85
2023/12/27 18:09:18;;;;;;;5.60;2.10;;;;;;;;;;10510418;28;20044;-85
2023/12/27 18:14:25;;;;;;;3.22;1.70;;;;;;;;;;10492978;28;20135;-86
2023/12/27 18:19:26;;;;;;;4.07;2.08;;;;;;;;;;10491702;28;20025;-85
2023/12/27 18:24:28;;;;;;;4.05;1.70;;;;;;;;;;10493002;28;20022;-85
2023/12/27 18:29:29;;;;;;;4.80;2.10;;;;;;;;;;10489951;28;20466;-85
2023/12/27 18:34:30;;;;;;;3.45;1.85;;;;;;;;;;10488080;28;20119;-85
2023/12/27 18:39:31;;;;;;;3.90;1.58;;;;;;;;;;10488190;28;20028;-85
2023/12/27 18:44:33;;;;;;;4.00;1.90;;;;;;;;;;10487812;28;20131;-86
2023/12/27 18:49:34;;;;;;;3.45;1.60;;;;;;;;;;10487050;28;20572;-85
2023/12/27 18:54:36;;;;;;;;;;;;;;;;;;10487498;28;20029;-85
2023/12/27 18:59:37;;;;;;;4.07;1.95;;;;;;;;;;10475502;22;19921;-86
2023/12/27 19:04:40;;;;;;;3.28;1.88;;;;;;;;;;10419914;28;20105;-85
2023/12/27 19:09:41;;;;;;;2.35;1.40;;;;;;;;;;10417600;28;20032;-86
2023/12/27 19:14:47;;;;;;;4.38;1.75;;;;;;;;;;10418591;28;20057;-86
2023/12/27 19:19:48;;;;;;;3.97;2.15;;;;;;;;;;10437052;28;20045;-85
2023/12/27 19:24:53;;;;;;;3.83;1.75;;;;;;;;;;10420081;28;20128;-86
2023/12/27 19:29:54;;;;;;;2.45;1.75;;;;;;;;;;10404137;28;20416;-85
2023/12/27 19:34:55;;;;;;;3.05;2.03;;;;;;;;;;10419630;28;20068;-85
2023/12/27 19:39:56;;;;;;;4.75;2.17;;;;;;;;;;10420534;28;20046;-86
2023/12/27 19:44:57;;;;;;;2.55;1.50;;;;;;;;;;10433227;28;20083;-86
2023/12/27 19:49:58;;;;;;;3.33;1.23;;;;;;;;;;10436936;28;20092;-87
2023/12/27 19:54:59;;;;;;;3.05;1.70;;;;;;;;;;10411578;28;20021;-85
2023/12/27 20:00:00;;;;;;;3.30;1.42;;;;;;;;;;10416582;28;20145;-85
2023/12/27 20:05:04;;;;;;;2.92;1.52;;;;;;;;;;10415868;28;20056;-85
